createdAt,value
2019-01-23T09:30:33.886Z,26.90
2019-01-23T09:31:33.857Z,27.40
2019-01-23T09:32:33.852Z,26.99
2019-01-23T09:33:33.829Z,27.09
2019-01-23T09:34:33.839Z,26.99
2019-01-23T09:35:33.810Z,26.99
2019-01-23T09:36:33.799Z,26.87
2019-01-23T09:37:33.797Z,26.27
2019-01-23T09:38:33.787Z,25.96
2019-01-23T09:39:33.781Z,26.46
2019-01-23T09:40:33.755Z,26.46
2019-01-23T09:41:33.745Z,25.95
2019-01-23T09:42:33.734Z,25.76
2019-01-23T09:43:33.722Z,26.26
2019-01-23T09:44:33.767Z,26.06
2019-01-23T09:45:33.704Z,25.84
2019-01-23T09:46:33.689Z,26.56
2019-01-23T09:47:33.687Z,26.26
2019-01-23T09:48:33.670Z,25.85
2019-01-23T09:49:33.676Z,26.26
2019-01-23T09:50:33.658Z,25.85
2019-01-23T09:51:33.639Z,25.84
2019-01-23T09:52:33.628Z,25.84
2019-01-23T09:53:33.625Z,26.25
2019-01-23T09:54:33.634Z,26.54
2019-01-23T09:55:33.605Z,26.25
2019-01-23T09:56:33.584Z,26.06
2019-01-23T09:57:33.579Z,25.84
2019-01-23T09:58:33.565Z,26.06
2019-01-23T09:59:33.556Z,25.85
2019-01-23T10:00:33.558Z,26.14
2019-01-23T10:01:33.533Z,26.26
2019-01-23T10:02:33.522Z,26.34
2019-01-23T10:03:33.508Z,26.35
2019-01-23T10:04:33.500Z,25.94
2019-01-23T10:05:33.504Z,26.35
2019-01-23T10:06:33.484Z,25.65
2019-01-23T10:07:33.469Z,26.04
2019-01-23T15:26:05.469Z,28.31
2019-01-23T15:27:05.438Z,27.10
2019-01-23T15:28:05.427Z,26.50
2019-01-23T15:29:05.431Z,26.08
2019-01-23T15:30:05.407Z,26.40
2019-01-23T15:31:05.396Z,26.48
2019-01-23T15:32:05.385Z,26.89
2019-01-23T15:33:05.373Z,26.39
2019-01-23T15:34:05.374Z,26.37
2019-01-23T15:35:05.350Z,25.98
2019-01-23T15:36:05.347Z,26.79
2019-01-23T15:37:05.331Z,26.28
2019-01-23T15:38:05.319Z,26.17
2019-01-23T15:39:05.322Z,25.96
2019-01-23T15:40:05.295Z,25.87
2019-01-23T15:41:05.291Z,26.37
2019-01-23T15:42:05.279Z,26.57
2019-01-23T15:43:05.269Z,25.88
2019-01-23T15:44:05.268Z,26.18
2019-01-23T15:45:05.245Z,25.87
2019-01-23T15:46:05.231Z,25.88
2019-01-23T15:47:05.231Z,25.98
2019-01-23T15:48:05.215Z,26.18
2019-01-23T15:49:05.227Z,25.96
2019-01-23T15:50:05.190Z,26.39
2019-01-23T15:51:05.178Z,26.68
2019-01-23T15:52:05.170Z,25.88
2019-01-23T15:53:05.159Z,25.87
2019-01-23T15:54:05.180Z,26.27
2019-01-23T15:55:05.135Z,26.77
2019-01-23T15:56:05.124Z,29.68
2019-01-23T15:57:05.115Z,25.85
2019-01-23T15:58:05.103Z,25.85
2019-01-23T15:59:05.101Z,26.95
2019-01-23T16:00:05.099Z,25.64
2019-01-23T16:01:05.068Z,26.06
2019-01-23T16:02:05.063Z,25.35
2019-01-23T16:03:05.072Z,25.25
2019-01-23T16:04:05.036Z,26.06
2019-01-23T16:05:05.055Z,24.95
2019-01-23T16:06:05.037Z,24.95
2019-01-23T16:07:05.005Z,26.06
2019-01-23T16:08:04.995Z,24.75
2019-01-23T16:09:05.626Z,25.87
2019-01-23T16:10:05.014Z,26.47
2019-01-23T16:11:04.967Z,25.53
2019-01-23T16:12:04.950Z,25.13
2019-01-23T16:13:04.939Z,25.43
2019-01-23T16:14:04.927Z,25.72
2019-01-23T16:15:05.614Z,26.82
2019-01-23T16:15:38.931Z,25.99
2019-01-23T16:16:48.002Z,24.20
2019-01-23T16:17:47.990Z,24.30
2019-01-23T16:18:47.975Z,24.41
2019-01-23T16:19:47.997Z,25.01
2019-01-23T16:20:47.955Z,24.81
2019-01-23T16:21:47.944Z,25.02
2019-01-23T16:22:47.947Z,25.13
2019-01-23T16:23:47.960Z,25.02
2019-01-23T16:24:47.944Z,24.82
2019-01-23T16:25:47.903Z,24.73
2019-01-23T16:26:48.437Z,24.93
2019-01-23T16:27:47.916Z,25.33
2019-01-23T16:28:47.871Z,25.63
2019-01-23T16:29:47.879Z,24.62
2019-01-23T16:30:47.860Z,25.34
2019-01-23T16:31:48.616Z,26.93
2019-01-23T16:32:59.356Z,25.92
2019-01-23T16:34:28.247Z,24.21
2019-01-23T16:36:25.422Z,24.41
2019-01-23T16:38:13.983Z,24.21
2019-01-23T16:39:14.456Z,24.21
2019-01-23T16:40:15.091Z,24.31
2019-01-23T16:41:15.781Z,24.51
2019-01-23T16:42:16.386Z,24.80
2019-01-23T16:43:16.986Z,24.00
2019-01-23T16:44:17.581Z,24.10
2019-01-23T16:45:18.339Z,24.50
2019-01-23T16:46:18.933Z,24.10
2019-01-23T16:47:19.530Z,24.19
2019-01-23T16:48:20.141Z,24.10
2019-01-23T16:49:20.729Z,24.50
2019-01-23T16:50:21.341Z,24.40
2019-01-23T16:51:21.932Z,24.30
2019-01-23T16:52:22.554Z,24.30
2019-01-23T16:53:23.165Z,24.20
2019-01-23T16:54:23.771Z,24.00
2019-01-23T16:55:24.371Z,23.90
2019-01-23T16:56:24.963Z,23.90
2019-01-23T16:57:25.552Z,23.71
2019-01-23T16:58:26.157Z,23.71
2019-01-23T16:59:26.915Z,24.31
2019-01-23T17:00:27.529Z,24.31
2019-01-23T17:01:28.123Z,23.81
2019-01-23T17:02:28.725Z,24.31
2019-01-23T17:03:29.331Z,24.61
2019-01-23T17:04:29.922Z,24.31
2019-01-23T17:05:30.533Z,24.41
2019-01-23T17:06:31.128Z,24.51
2019-01-23T17:07:31.724Z,24.31
2019-01-23T17:08:32.322Z,24.62
2019-01-23T17:09:32.915Z,24.52
2019-01-23T17:10:33.524Z,24.32
2019-01-23T17:11:34.124Z,23.62
2019-01-23T17:12:34.718Z,23.52
2019-01-23T17:13:35.331Z,24.52
2019-01-23T17:14:35.928Z,23.72
2019-01-23T17:15:36.542Z,23.72
2019-01-23T17:16:37.139Z,24.32
2019-01-23T17:17:37.745Z,23.72
2019-01-23T17:18:38.343Z,23.52
2019-01-23T17:19:38.948Z,23.92
2019-01-23T17:20:39.551Z,23.92
2019-01-23T17:21:40.163Z,23.92
2019-01-23T17:22:40.797Z,23.92
2019-01-23T17:23:41.400Z,24.02
2019-01-23T17:24:42.003Z,24.02
2019-01-23T17:25:42.617Z,23.71
2019-01-23T17:26:43.216Z,25.13
2019-01-23T17:27:43.814Z,25.12
2019-01-23T17:28:44.414Z,25.01
2019-01-23T17:29:45.028Z,24.11
2019-01-23T17:30:45.623Z,24.41
2019-01-23T17:31:46.247Z,25.60
2019-01-23T17:32:46.865Z,24.90
2019-01-23T17:33:47.460Z,24.40
2019-01-23T17:34:48.061Z,24.80
2019-01-23T17:35:48.682Z,24.30
2019-01-23T17:36:49.278Z,24.61
2019-01-23T17:37:49.872Z,24.30
2019-01-23T17:38:50.465Z,24.50
2019-01-23T17:39:51.068Z,24.31
2019-01-23T17:40:51.667Z,25.01
2019-01-23T17:41:52.262Z,25.10
2019-01-23T17:42:52.873Z,24.80
2019-01-23T17:43:53.471Z,25.40
2019-01-23T17:44:54.060Z,24.60
2019-01-23T17:45:54.668Z,24.20
2019-01-23T17:46:55.263Z,24.19
2019-01-23T17:47:55.859Z,24.49
2019-01-23T17:48:56.453Z,24.59
2019-01-23T17:49:57.052Z,24.08
2019-01-23T17:50:57.652Z,23.88
2019-01-23T17:51:58.250Z,24.29
2019-01-23T17:52:58.832Z,24.49
2019-01-23T17:53:59.417Z,24.08
2019-01-23T17:54:59.993Z,24.19
2019-01-23T17:56:00.625Z,23.88
2019-01-23T17:57:01.203Z,24.50
2019-01-23T17:58:01.794Z,24.19
2019-01-23T17:59:02.947Z,24.49
2019-01-23T18:00:03.762Z,23.69
2019-01-23T18:01:04.441Z,23.49
2019-01-23T18:02:05.052Z,23.88
2019-01-23T18:03:05.633Z,23.88
2019-01-23T18:04:06.220Z,23.88
2019-01-23T18:05:06.800Z,24.08
2019-01-23T18:06:07.397Z,24.59
2019-01-23T18:07:07.980Z,24.18
2019-01-23T18:08:08.565Z,24.08
2019-01-23T18:09:09.153Z,23.77
2019-01-23T18:10:09.732Z,23.69
2019-01-23T18:11:10.876Z,24.19
2019-01-23T18:12:11.466Z,23.77
2019-01-23T18:13:12.051Z,23.97
2019-01-23T18:14:12.640Z,24.08
2019-01-23T18:15:13.226Z,23.77
2019-01-23T18:16:13.833Z,23.57
2019-01-23T18:17:14.426Z,23.57
2019-01-23T18:18:15.016Z,23.27
2019-01-23T18:19:15.614Z,23.27
2019-01-23T18:20:16.196Z,23.77
2019-01-23T18:21:16.796Z,22.97
2019-01-23T18:22:17.395Z,23.57
2019-01-23T18:23:17.987Z,22.77
2019-01-23T18:24:18.566Z,23.97
2019-01-23T18:25:19.145Z,23.47
2019-01-23T18:26:19.774Z,24.08
2019-01-23T18:27:20.356Z,23.97
2019-01-23T18:28:20.936Z,23.97
2019-01-23T18:29:21.516Z,23.57
2019-01-23T18:30:22.091Z,23.77
2019-01-23T18:31:22.679Z,23.57
2019-01-23T18:32:23.258Z,23.57
2019-01-23T18:33:23.841Z,23.99
2019-01-23T18:34:24.425Z,23.77
2019-01-23T18:35:25.013Z,23.47
2019-01-23T18:36:25.643Z,23.18
2019-01-23T18:37:26.292Z,23.68
2019-01-23T18:38:26.877Z,23.77
2019-01-23T18:39:27.465Z,24.19
2019-01-23T18:40:28.052Z,23.47
2019-01-23T18:41:29.036Z,23.79
2019-01-23T18:42:29.633Z,23.97
2019-01-23T18:43:30.210Z,23.68
2019-01-23T18:44:30.799Z,24.08
2019-01-23T18:45:31.379Z,23.37
2019-01-23T18:46:32.011Z,23.79
2019-01-23T18:47:32.596Z,23.49
2019-01-23T18:48:33.181Z,22.97
2019-01-23T18:49:33.768Z,23.97
2019-01-23T18:50:34.346Z,23.07
2019-01-23T18:51:34.944Z,23.18
2019-01-23T18:52:35.541Z,22.87
2019-01-23T18:53:36.133Z,23.07
2019-01-23T18:54:36.721Z,23.18
2019-01-23T18:55:37.305Z,23.18
2019-01-23T18:56:37.922Z,23.27
2019-01-23T18:57:38.514Z,23.18
2019-01-23T18:58:39.099Z,23.07
2019-01-23T18:59:39.689Z,23.18
2019-01-23T19:00:40.284Z,23.37
2019-01-23T19:01:40.911Z,22.77
2019-01-23T19:02:41.506Z,22.77
2019-01-23T19:03:42.098Z,23.18
2019-01-23T19:04:42.685Z,22.87
2019-01-23T19:05:43.269Z,23.37
2019-01-23T19:06:43.900Z,23.26
2019-01-23T19:07:44.494Z,22.86
2019-01-23T19:08:45.077Z,22.87
2019-01-23T19:09:45.657Z,23.46
2019-01-23T19:10:46.238Z,23.18
2019-01-23T19:11:47.236Z,23.56
2019-01-23T19:12:47.658Z,23.06
2019-01-23T19:13:48.244Z,23.46
2019-01-23T19:14:48.835Z,23.27
2019-01-23T19:15:49.448Z,23.18
2019-01-23T19:16:50.109Z,22.87
2019-01-23T19:17:50.684Z,23.26
2019-01-23T19:18:51.250Z,22.87
2019-01-23T19:19:51.829Z,23.07
2019-01-23T19:20:52.422Z,23.27
2019-01-23T19:21:55.144Z,22.87
2019-01-23T19:22:55.873Z,25.28
2019-01-23T19:23:56.441Z,23.06
2019-01-23T19:24:57.027Z,23.26
2019-01-23T19:25:57.608Z,23.16
2019-01-23T19:26:58.205Z,22.96
2019-01-23T19:27:58.778Z,22.87
2019-01-23T19:28:59.357Z,22.96
2019-01-23T19:30:00.386Z,23.46
2019-01-23T19:31:01.116Z,23.07
2019-01-23T19:32:01.721Z,23.18
2019-01-23T19:33:02.300Z,23.07
2019-01-23T19:34:02.887Z,23.27
2019-01-23T19:35:03.459Z,23.27
2019-01-23T19:36:04.037Z,22.87
2019-01-23T19:37:04.642Z,22.87
2019-01-23T19:38:05.216Z,23.37
2019-01-23T19:39:05.796Z,22.87
2019-01-23T19:40:06.378Z,22.87
2019-01-23T19:41:06.959Z,22.87
2019-01-23T19:42:07.687Z,23.18
2019-01-23T19:43:08.278Z,23.07
2019-01-23T19:44:08.869Z,22.87
2019-01-23T19:45:09.452Z,23.47
2019-01-23T19:46:10.054Z,23.47
2019-01-23T19:48:26.223Z,19.88
2019-01-23T19:49:28.645Z,22.27
2019-01-23T19:50:29.379Z,24.02
2019-01-23T19:51:36.525Z,25.17
2019-01-23T19:52:36.861Z,26.09
2019-01-23T19:53:38.246Z,27.23
2019-01-23T19:54:38.546Z,27.43
2019-01-23T19:55:40.923Z,27.14
2019-01-23T19:56:41.231Z,26.43
2019-01-23T19:57:51.508Z,27.24
2019-01-23T19:58:51.848Z,26.93
2019-01-23T19:59:53.235Z,27.25
2019-01-23T20:00:53.548Z,26.95
2019-01-23T20:01:55.915Z,26.97
2019-01-23T20:02:56.229Z,26.97
2019-01-23T20:03:58.587Z,27.37
2019-01-23T20:04:58.900Z,27.47
2019-01-23T20:06:01.262Z,27.08
2019-01-23T20:07:01.578Z,27.17
2019-01-23T20:08:01.933Z,27.38
2019-01-23T20:09:02.246Z,26.89
2019-01-23T20:10:02.620Z,27.50
2019-01-23T20:11:02.922Z,27.70
2019-01-23T20:12:03.360Z,27.58
2019-01-23T20:13:03.697Z,26.79
2019-01-23T20:14:04.078Z,26.77
2019-01-23T20:15:04.379Z,26.99
2019-01-23T20:16:04.712Z,26.89
2019-01-23T20:17:05.021Z,27.09
2019-01-23T20:18:05.408Z,26.99
2019-01-23T20:19:05.713Z,27.19
2019-01-23T20:20:06.065Z,27.39
2019-01-23T20:21:06.375Z,27.70
2019-01-23T20:22:06.810Z,27.39
2019-01-23T20:23:07.133Z,27.19
2019-01-23T20:24:07.529Z,27.80
2019-01-23T20:25:07.834Z,27.19
2019-01-23T20:26:08.151Z,26.89
2019-01-23T20:27:08.466Z,26.68
2019-01-23T20:28:08.806Z,26.99
2019-01-23T20:29:09.138Z,27.19
2019-01-23T20:30:09.508Z,27.10
2019-01-23T20:31:09.834Z,27.29
2019-01-23T20:32:10.234Z,27.10
2019-01-23T20:33:10.566Z,27.61
2019-01-23T20:34:10.971Z,27.51
2019-01-23T20:35:11.290Z,26.89
2019-01-23T20:36:11.693Z,26.89
2019-01-23T20:37:12.006Z,27.31
2019-01-23T20:38:12.353Z,27.09
2019-01-23T20:39:12.669Z,27.19
2019-01-23T20:40:13.050Z,27.80
2019-01-23T20:41:13.352Z,26.99
2019-01-23T20:42:13.678Z,27.09
2019-01-23T20:43:13.989Z,28.30
2019-01-23T20:44:14.433Z,27.90
2019-01-23T20:45:14.784Z,27.18
2019-01-23T20:46:44.078Z,27.69
2019-01-23T20:47:44.463Z,27.28
2019-01-23T20:48:45.908Z,26.98
2019-01-23T20:49:46.212Z,27.38
2019-01-23T20:50:47.635Z,27.57
2019-01-23T20:51:47.934Z,26.25
2019-01-23T20:55:44.657Z,26.98
2019-01-23T20:56:46.023Z,27.26
2019-01-23T20:57:46.349Z,28.28
2019-01-23T20:58:50.773Z,27.26
2019-01-23T20:59:51.084Z,27.37
2019-01-23T21:00:52.500Z,28.18
2019-01-23T21:01:52.828Z,28.18
2019-01-23T21:03:01.832Z,27.36
2019-01-23T21:04:02.149Z,28.06
2019-01-23T21:05:30.312Z,27.56
2019-01-23T21:06:30.632Z,28.27
2019-01-23T21:08:07.805Z,27.25
2019-01-23T21:09:08.120Z,27.76
2019-01-23T21:10:15.296Z,27.46
2019-01-23T21:11:15.607Z,27.25
2019-01-23T21:17:01.256Z,27.05
2019-01-23T21:18:01.559Z,27.17
2019-01-23T21:19:05.450Z,27.17
2019-01-23T21:20:05.809Z,26.97
2019-01-23T21:21:08.234Z,26.86
2019-01-23T21:22:08.690Z,26.97
2019-01-23T21:23:30.142Z,26.97
2019-01-23T21:24:30.472Z,28.18
2019-01-23T21:25:32.819Z,27.47
2019-01-23T21:26:33.142Z,26.86
2019-01-23T21:27:33.516Z,27.47
2019-01-23T21:28:42.776Z,26.86
2019-01-23T21:29:43.097Z,27.17
2019-01-23T21:33:47.990Z,27.05
2019-01-23T21:34:48.351Z,27.17
2019-01-23T21:35:48.702Z,27.47
2019-01-23T21:37:26.937Z,26.46
2019-01-23T21:38:27.300Z,27.67
2019-01-23T21:39:30.989Z,27.99
2019-01-23T21:40:31.351Z,27.47
2019-01-23T21:41:47.442Z,27.28
2019-01-23T21:42:47.752Z,26.98
2019-01-23T21:43:49.089Z,26.47
2019-01-23T21:44:49.422Z,27.28
2019-01-23T21:45:49.823Z,27.77
2019-01-23T21:46:50.145Z,27.38
2019-01-23T21:47:51.573Z,27.08
2019-01-23T21:48:51.897Z,27.57
2019-01-23T21:50:00.027Z,27.77
2019-01-23T21:51:00.336Z,26.97
2019-01-23T21:52:21.704Z,27.47
2019-01-23T21:53:22.020Z,27.06
2019-01-23T21:54:30.934Z,28.18
2019-01-23T21:55:31.247Z,27.47
2019-01-23T21:56:32.585Z,27.06
2019-01-23T21:57:32.897Z,27.26
2019-01-23T21:59:48.375Z,28.58
2019-01-23T22:02:03.792Z,27.36
2019-01-23T22:06:23.162Z,27.76
2019-01-23T22:07:39.212Z,27.36
2019-01-23T22:08:39.512Z,27.25
2019-01-23T22:09:57.062Z,28.27
2019-01-23T22:10:57.421Z,28.17
2019-01-23T22:11:57.770Z,27.15
2019-01-23T22:12:58.074Z,28.06
2019-01-23T22:13:58.398Z,27.66
2019-01-23T22:14:58.722Z,27.46
2019-01-23T22:15:59.164Z,27.34
2019-01-23T22:16:59.457Z,27.25
2019-01-23T22:17:59.857Z,28.17
2019-01-23T22:19:00.182Z,26.95
2019-01-23T22:20:00.604Z,27.46
2019-01-23T22:21:00.953Z,27.66
2019-01-23T22:22:01.321Z,28.06
2019-01-23T22:23:01.635Z,28.06
2019-01-23T22:24:02.047Z,27.95
2019-01-23T22:25:02.355Z,27.75
2019-01-23T22:26:02.703Z,27.25
2019-01-23T22:27:03.005Z,27.15
2019-01-23T22:28:03.405Z,27.05
2019-01-23T22:29:03.774Z,27.76
2019-01-23T22:30:04.133Z,27.26
2019-01-23T22:31:04.450Z,28.17
2019-01-23T22:32:05.887Z,27.06
2019-01-23T22:33:06.192Z,27.57
2019-01-23T22:34:06.503Z,27.26
2019-01-23T22:35:06.812Z,27.26
2019-01-23T22:36:07.141Z,27.47
2019-01-23T22:37:07.445Z,26.98
2019-01-23T22:38:09.818Z,27.67
2019-01-23T22:39:10.114Z,27.06
2019-01-23T22:40:11.470Z,27.48
2019-01-23T22:41:11.782Z,27.69
2019-01-23T22:42:19.672Z,27.08
2019-01-23T22:43:19.984Z,27.28
2019-01-23T22:44:21.323Z,27.87
2019-01-23T22:45:21.646Z,27.99
2019-01-23T22:46:21.981Z,28.08
2019-01-23T22:47:22.288Z,27.69
2019-01-23T22:48:22.598Z,28.28
2019-01-23T22:49:22.908Z,28.38
2019-01-23T22:51:38.487Z,27.97
2019-01-23T22:52:46.667Z,26.97
2019-01-23T22:53:46.975Z,26.98
2019-01-23T22:54:48.283Z,26.57
2019-01-23T22:55:48.594Z,27.19
2019-01-23T22:56:48.936Z,27.39
2019-01-23T22:57:49.240Z,26.89
2019-01-23T22:58:51.568Z,27.19
2019-01-23T22:59:51.860Z,26.70
2019-01-23T23:01:30.196Z,27.40
2019-01-23T23:02:30.544Z,27.00
2019-01-23T23:03:46.675Z,26.90
2019-01-23T23:04:46.972Z,27.10
2019-01-23T23:05:48.333Z,27.20
2019-01-23T23:06:48.694Z,28.12
2019-01-23T23:07:50.003Z,28.02
2019-01-23T23:08:50.565Z,27.51
2019-01-23T23:09:52.971Z,27.61
2019-01-23T23:10:53.326Z,27.20
2019-01-23T23:11:53.665Z,27.10
2019-01-23T23:12:53.982Z,28.02
2019-01-23T23:13:55.346Z,27.20
2019-01-23T23:14:55.644Z,27.20
2019-01-23T23:15:57.951Z,27.40
2019-01-23T23:16:58.266Z,27.00
2019-01-23T23:17:59.576Z,27.50
2019-01-23T23:18:59.875Z,26.90
2019-01-23T23:20:01.179Z,27.51
2019-01-23T23:21:01.499Z,27.81
2019-01-23T23:22:02.862Z,27.31
2019-01-23T23:23:03.166Z,27.61
2019-01-23T23:24:03.475Z,27.81
2019-01-23T23:25:03.798Z,27.51
2019-01-23T23:26:18.696Z,26.61
2019-01-23T23:27:19.041Z,27.31
2019-01-23T23:28:25.777Z,27.83
2019-01-23T23:29:25.636Z,27.81
2019-01-23T23:30:26.968Z,27.71
2019-01-23T23:31:27.274Z,28.20
2019-01-23T23:32:41.701Z,27.99
2019-01-23T23:33:42.016Z,27.79
2019-01-23T23:34:43.324Z,27.48
2019-01-23T23:35:43.619Z,27.48
2019-01-23T23:36:45.936Z,27.99
2019-01-23T23:37:46.246Z,27.37
2019-01-23T23:40:01.474Z,27.17
2019-01-23T23:41:02.795Z,27.57
2019-01-23T23:42:03.132Z,27.77
2019-01-23T23:43:05.460Z,28.28
2019-01-23T23:44:05.766Z,28.79
2019-01-23T23:45:06.073Z,27.77
2019-01-23T23:46:06.402Z,27.76
2019-01-23T23:47:13.701Z,27.25
2019-01-23T23:48:14.032Z,28.17
2019-01-23T23:49:14.348Z,27.47
2019-01-23T23:50:22.179Z,27.06
2019-01-23T23:51:22.535Z,27.18
2019-01-23T23:52:22.838Z,26.97
2019-01-23T23:53:23.152Z,27.69
2019-01-23T23:54:23.461Z,27.38
2019-01-23T23:55:23.768Z,27.18
2019-01-23T23:57:39.972Z,27.18
2019-01-23T23:58:41.320Z,28.41
2019-01-23T23:59:41.625Z,26.98
